createdAt,value
2022-09-03T00:04:46.836Z,1012.04
2022-09-03T00:09:49.469Z,1011.974
2022-09-03T00:14:57.821Z,1011.961
2022-09-03T00:20:00.405Z,1011.991
2022-09-03T00:30:05.711Z,1011.969
2022-09-03T00:35:10.963Z,1012.009
2022-09-03T00:40:13.933Z,1011.956
2022-09-03T00:45:16.653Z,1011.952
2022-09-03T00:50:19.400Z,1011.932
2022-09-03T00:55:21.939Z,1011.951
2022-09-03T01:00:24.442Z,1011.911
2022-09-03T01:05:27.049Z,1011.869
2022-09-03T01:10:29.611Z,1011.878
2022-09-03T01:15:32.323Z,1011.795
2022-09-03T01:20:35.031Z,1011.801
2022-09-03T01:25:40.355Z,1011.742
2022-09-03T01:35:45.794Z,1011.742
2022-09-03T01:50:53.479Z,1011.688
2022-09-03T02:06:01.513Z,1011.726
2022-09-03T02:16:09.719Z,1011.708
2022-09-03T02:21:12.314Z,1011.668
2022-09-03T02:26:15.142Z,1011.708
2022-09-03T02:31:17.801Z,1011.76
2022-09-03T02:46:25.869Z,1011.698
2022-09-03T02:51:28.533Z,1011.717
2022-09-03T02:56:31.204Z,1011.757
2022-09-03T03:06:36.739Z,1011.736
2022-09-03T03:11:39.572Z,1011.7
2022-09-03T03:21:45.501Z,1011.643
2022-09-03T03:26:48.201Z,1011.728
2022-09-03T03:36:53.463Z,1011.786
2022-09-03T03:46:58.782Z,1011.951
2022-09-03T03:57:06.937Z,1011.951
2022-09-03T04:02:09.457Z,1011.941
2022-09-03T04:12:18.057Z,1011.846
2022-09-03T04:22:24.237Z,1011.861
2022-09-03T04:27:26.954Z,1011.855
2022-09-03T04:42:34.731Z,1011.815
2022-09-03T04:47:46.034Z,1011.776
2022-09-03T04:52:48.822Z,1011.744
2022-09-03T04:57:51.383Z,1011.8
2022-09-03T05:02:54.239Z,1011.834
2022-09-03T05:07:56.817Z,1011.822
2022-09-03T05:12:59.316Z,1011.9
2022-09-03T05:18:01.872Z,1011.911
2022-09-03T05:23:07.103Z,1011.936
2022-09-03T05:28:10.062Z,1011.926
2022-09-03T05:33:12.853Z,1011.958
2022-09-03T05:38:15.629Z,1011.835
2022-09-03T05:43:18.062Z,1011.856
2022-09-03T05:48:20.823Z,1011.869
2022-09-03T05:53:23.742Z,1011.972
2022-09-03T05:58:26.114Z,1012.012
2022-09-03T06:03:29.324Z,1012.018
2022-09-03T06:08:31.836Z,1011.96
2022-09-03T06:13:34.395Z,1011.992
2022-09-03T06:18:37.041Z,1011.912
2022-09-03T06:23:41.036Z,1011.948
2022-09-03T06:28:42.346Z,1011.943
2022-09-03T06:33:44.925Z,1011.99
2022-09-03T06:38:47.500Z,1011.979
2022-09-03T06:43:50.192Z,1012.058
2022-09-03T06:48:52.975Z,1012.125
2022-09-03T06:53:55.718Z,1012.123
2022-09-03T06:58:58.635Z,1012.087
2022-09-03T07:04:01.368Z,1012.153
2022-09-03T07:09:03.817Z,1012.064
2022-09-03T07:14:06.486Z,1012.085
2022-09-03T07:19:09.239Z,1012.11
2022-09-03T07:24:11.725Z,1012.176
2022-09-03T07:29:14.399Z,1012.257
2022-09-03T07:34:17.333Z,1012.27
2022-09-03T07:39:20.010Z,1012.214
2022-09-03T07:44:22.860Z,1012.205
2022-09-03T07:49:25.744Z,1012.246
2022-09-03T07:54:28.549Z,1012.323
2022-09-03T07:59:31.220Z,1012.268
2022-09-03T08:04:33.939Z,1012.242
2022-09-03T08:09:37.394Z,1012.232
2022-09-03T08:14:39.958Z,1012.209
2022-09-03T08:19:42.753Z,1012.182
2022-09-03T08:24:45.701Z,1012.178
2022-09-03T08:29:48.637Z,1012.135
2022-09-03T08:34:51.290Z,1012.08
2022-09-03T08:39:53.814Z,1012.137
2022-09-03T08:44:56.637Z,1011.982
2022-09-03T08:49:59.386Z,1011.966
2022-09-03T08:55:01.850Z,1012.028
2022-09-03T09:00:04.360Z,1012.012
2022-09-03T09:05:09.108Z,1011.982
2022-09-03T09:10:09.691Z,1011.982
2022-09-03T09:15:12.662Z,1012.009
2022-09-03T09:20:15.524Z,1011.883
2022-09-03T09:25:18.498Z,1011.854
2022-09-03T09:30:21.260Z,1011.866
2022-09-03T09:35:23.931Z,1011.812
2022-09-03T09:40:26.578Z,1011.791
2022-09-03T09:45:29.368Z,1011.676
2022-09-03T09:50:32.061Z,1011.663
2022-09-03T09:55:34.894Z,1011.699
2022-09-03T10:00:37.541Z,1011.669
2022-09-03T10:05:40.267Z,1011.675
2022-09-03T10:10:42.593Z,1011.642
2022-09-03T10:15:45.314Z,1011.482
2022-09-03T10:20:48.074Z,1011.528
2022-09-03T10:25:50.748Z,1011.411
2022-09-03T10:30:53.388Z,1011.394
2022-09-03T10:35:56.313Z,1011.41
2022-09-03T10:40:58.877Z,1011.413
2022-09-03T10:46:01.479Z,1011.356
2022-09-03T10:51:03.716Z,1011.352
2022-09-03T10:56:06.221Z,1011.389
2022-09-03T11:01:09.012Z,1011.232
2022-09-03T11:06:11.563Z,1011.092
2022-09-03T11:11:14.303Z,1011.154
2022-09-03T11:16:16.844Z,1011.111
2022-09-03T11:21:19.421Z,1011.086
2022-09-03T11:26:22.080Z,1010.975
2022-09-03T11:31:24.683Z,1010.946
2022-09-03T11:36:27.528Z,1010.913
2022-09-03T11:41:30.364Z,1010.946
2022-09-03T11:46:32.851Z,1010.907
2022-09-03T11:51:35.463Z,1010.896
2022-09-03T11:56:37.953Z,1010.771
2022-09-03T12:01:40.658Z,1010.657
2022-09-03T12:06:43.547Z,1010.687
2022-09-03T12:11:46.429Z,1010.619
2022-09-03T12:16:49.431Z,1010.652
2022-09-03T12:21:52.034Z,1010.638
2022-09-03T12:26:54.932Z,1010.568
2022-09-03T12:31:57.713Z,1010.513
2022-09-03T12:37:00.571Z,1010.526
2022-09-03T12:42:03.477Z,1010.347
2022-09-03T12:52:08.685Z,1010.198
2022-09-03T12:57:11.256Z,1010.159
2022-09-03T13:02:14.427Z,1010.237
2022-09-03T13:07:16.764Z,1010.321
2022-09-03T13:12:20.751Z,1010.159
2022-09-03T13:17:23.409Z,1010.284
2022-09-03T13:22:25.963Z,1010.166
2022-09-03T13:27:33.883Z,1010.216
2022-09-03T13:32:36.441Z,1010.264
2022-09-03T13:37:39.278Z,1010.251
2022-09-03T13:52:47.513Z,1009.925
2022-09-03T13:57:50.133Z,1010.062
2022-09-03T14:02:52.607Z,1010.026
2022-09-03T14:07:55.275Z,1010.044
2022-09-03T14:12:58.062Z,1009.983
2022-09-03T14:18:00.738Z,1009.936
2022-09-03T14:23:03.515Z,1009.888
2022-09-03T14:28:06.172Z,1009.798
2022-09-03T14:33:08.822Z,1009.903
2022-09-03T14:38:11.621Z,1009.838
2022-09-03T14:43:14.463Z,1009.826
2022-09-03T14:48:17.250Z,1009.712
2022-09-03T14:53:19.931Z,1009.785
2022-09-03T14:58:22.685Z,1009.715
2022-09-03T15:03:25.515Z,1009.65
2022-09-03T15:08:28.178Z,1009.66
2022-09-03T15:13:31.227Z,1009.59
2022-09-03T15:18:33.825Z,1009.597
2022-09-03T15:23:36.595Z,1009.63
2022-09-03T15:33:41.913Z,1009.663
2022-09-03T15:38:44.944Z,1009.666
2022-09-03T15:43:47.478Z,1009.647
2022-09-03T15:48:50.269Z,1009.696
2022-09-03T15:53:52.800Z,1009.681
2022-09-03T15:58:55.265Z,1009.767
2022-09-03T16:03:57.909Z,1009.765
2022-09-03T16:09:03.496Z,1009.699
2022-09-03T16:14:06.191Z,1009.705
2022-09-03T16:19:09.300Z,1009.774
2022-09-03T16:24:12.079Z,1009.679
2022-09-03T16:34:18.936Z,1009.739
2022-09-03T16:39:20.244Z,1009.772
2022-09-03T16:44:22.875Z,1009.789
2022-09-03T16:49:25.717Z,1009.779
2022-09-03T16:54:29.325Z,1009.771
2022-09-03T16:59:31.947Z,1009.763
2022-09-03T17:04:34.694Z,1009.716
2022-09-03T17:09:37.456Z,1009.689
2022-09-03T17:14:40.076Z,1009.772
2022-09-03T17:19:41.982Z,1009.738
2022-09-03T17:24:44.517Z,1009.76
2022-09-03T17:29:47.102Z,1009.806
2022-09-03T17:34:49.772Z,1009.84
2022-09-03T17:39:52.332Z,1009.791
2022-09-03T17:44:54.915Z,1009.821
2022-09-03T17:49:57.566Z,1009.9
2022-09-03T17:55:00.409Z,1009.971
2022-09-03T18:00:02.956Z,1010.015
2022-09-03T18:05:05.473Z,1010.043
2022-09-03T18:10:08.256Z,1010.121
2022-09-03T18:15:10.835Z,1010.157
2022-09-03T18:20:13.351Z,1010.221
2022-09-03T18:25:15.887Z,1010.23
2022-09-03T18:35:23.853Z,1010.271
2022-09-03T18:40:26.535Z,1010.295
2022-09-03T18:45:42.251Z,1010.234
2022-09-03T18:50:32.035Z,1010.287
2022-09-03T18:55:34.668Z,1010.327
2022-09-03T19:00:37.411Z,1010.315
2022-09-03T19:05:40.153Z,1010.369
2022-09-03T19:10:42.872Z,1010.366
2022-09-03T19:15:45.800Z,1010.312
2022-09-03T19:20:48.373Z,1010.355
2022-09-03T19:25:50.960Z,1010.385
2022-09-03T19:30:53.687Z,1010.376
2022-09-03T19:35:56.561Z,1010.393
2022-09-03T19:40:59.078Z,1010.466
2022-09-03T19:46:01.963Z,1010.491
2022-09-03T19:51:04.756Z,1010.508
2022-09-03T19:56:08.037Z,1010.554
2022-09-03T20:01:10.312Z,1010.568
2022-09-03T20:06:13.146Z,1010.567
2022-09-03T20:11:15.799Z,1010.646
2022-09-03T20:16:18.540Z,1010.699
2022-09-03T20:21:21.226Z,1010.709
2022-09-03T20:26:23.863Z,1010.749
2022-09-03T20:31:26.555Z,1010.741
2022-09-03T20:36:29.237Z,1010.816
2022-09-03T20:41:31.721Z,1010.746
2022-09-03T20:46:34.567Z,1010.791
2022-09-03T20:51:37.093Z,1010.79
2022-09-03T20:56:39.660Z,1010.835
2022-09-03T21:01:42.320Z,1010.847
2022-09-03T21:06:44.917Z,1010.872
2022-09-03T21:11:47.636Z,1010.867
2022-09-03T21:16:50.536Z,1010.814
2022-09-03T21:21:53.139Z,1010.853
2022-09-03T21:26:55.615Z,1010.872
2022-09-03T21:31:58.450Z,1010.853
2022-09-03T21:37:01.098Z,1010.936
2022-09-03T21:42:03.876Z,1011.025
2022-09-03T21:47:06.497Z,1011.072
2022-09-03T21:52:09.093Z,1011.053
2022-09-03T21:57:11.788Z,1011.121
2022-09-03T22:02:14.502Z,1011.097
2022-09-03T22:07:17.394Z,1011.203
2022-09-03T22:12:20.085Z,1011.203
2022-09-03T22:17:23.027Z,1011.167
2022-09-03T22:22:25.578Z,1011.193
2022-09-03T22:27:28.174Z,1011.188
2022-09-03T22:32:30.786Z,1011.228
2022-09-03T22:37:33.490Z,1011.304
2022-09-03T22:42:36.463Z,1011.334
2022-09-03T22:47:39.081Z,1011.392
2022-09-03T22:52:41.475Z,1011.409
2022-09-03T22:57:44.184Z,1011.451
2022-09-03T23:02:46.654Z,1011.502
2022-09-03T23:07:49.594Z,1011.482
2022-09-03T23:12:52.380Z,1011.508
2022-09-03T23:17:55.091Z,1011.596
2022-09-03T23:22:57.947Z,1011.55
2022-09-03T23:28:00.653Z,1011.554
2022-09-03T23:33:03.085Z,1011.658
2022-09-03T23:38:05.612Z,1011.665
2022-09-03T23:43:09.850Z,1011.607
2022-09-03T23:48:49.442Z,1011.609
2022-09-03T23:53:52.268Z,1011.714
2022-09-03T23:58:54.953Z,1011.621
